Time;durP1;ratioP1;P1;durP2;ratioP2;P2;SDS_P1;SDS_P2;PMS_P1;PMS_P2;Temp;Humidity;BMP_temperature;BMP_pressure;BME280_temperature;BME280_humidity;BME280_pressure;Samples;Min_cycle;Max_cycle;Signal;HPM_P1;HPM_P2
2023/05/04 00:00:54;;;;;;;4.95;2.80;;;13.60;99.90;;;;;;7387140;19;20210;-74
2023/05/04 00:03:20;;;;;;;3.47;2.72;;;13.80;99.90;;;;;;7389423;19;20150;-75
2023/05/04 00:05:46;;;;;;;4.35;2.45;;;14.00;99.90;;;;;;7387214;19;20146;-75
2023/05/04 00:08:11;;;;;;;6.03;2.88;;;14.10;99.90;;;;;;7388276;19;20130;-76
2023/05/04 00:10:37;;;;;;;3.88;2.78;;;14.10;99.90;;;;;;7386980;19;20127;-74
2023/05/04 00:13:03;;;;;;;3.42;2.38;;;14.10;99.90;;;;;;7386992;19;20146;-75
2023/05/04 00:15:29;;;;;;;5.18;2.85;;;14.20;99.90;;;;;;7390420;19;20135;-75
2023/05/04 00:17:55;;;;;;;5.53;2.72;;;14.00;99.90;;;;;;7386819;19;20567;-76
2023/05/04 00:20:21;;;;;;;8.25;2.90;;;13.80;99.90;;;;;;7388325;19;20607;-75
2023/05/04 00:22:46;;;;;;;4.38;2.67;;;13.80;99.90;;;;;;7387017;19;20162;-75
2023/05/04 00:25:12;;;;;;;5.68;2.60;;;14.00;99.90;;;;;;7389747;19;20134;-76
2023/05/04 00:27:38;;;;;;;4.53;2.97;;;14.00;99.90;;;;;;7388652;19;20480;-75
2023/05/04 00:30:04;;;;;;;6.80;2.90;;;14.00;99.90;;;;;;7389550;19;20143;-76
2023/05/04 00:32:30;;;;;;;4.53;2.53;;;14.10;99.90;;;;;;7390419;19;20486;-75
2023/05/04 00:34:56;;;;;;;4.35;2.83;;;14.00;99.90;;;;;;7389052;19;20139;-75
2023/05/04 00:37:22;;;;;;;3.97;3.00;;;14.00;99.90;;;;;;7391356;19;20134;-74
2023/05/04 00:39:47;;;;;;;5.15;2.90;;;14.00;99.90;;;;;;7385371;19;20162;-74
2023/05/04 00:42:13;;;;;;;3.63;2.90;;;13.80;99.90;;;;;;7386902;19;20638;-74
2023/05/04 00:44:43;;;;;;;3.83;2.80;;;13.80;99.90;;;;;;7387072;19;20168;-73
2023/05/04 00:47:10;;;;;;;4.55;2.90;;;13.50;99.90;;;;;;7388711;19;20153;-75
2023/05/04 00:49:36;;;;;;;3.83;2.75;;;13.80;99.90;;;;;;7385955;19;20515;-76
2023/05/04 00:52:03;;;;;;;6.88;3.45;;;13.80;99.90;;;;;;7385539;19;20147;-75
2023/05/04 00:54:29;;;;;;;4.90;3.03;;;13.80;99.90;;;;;;7387374;19;20451;-75
2023/05/04 00:56:55;;;;;;;2.92;2.58;;;13.70;99.90;;;;;;7389036;19;20238;-74
2023/05/04 00:59:21;;;;;;;3.00;2.67;;;13.60;99.90;;;;;;7384111;19;20238;-75
2023/05/04 01:01:47;;;;;;;4.05;2.80;;;13.10;99.90;;;;;;7387362;19;20146;-75
2023/05/04 01:04:13;;;;;;;4.82;3.35;;;13.10;99.90;;;;;;7386391;19;20468;-75
2023/05/04 01:07:01;;;;;;;4.30;2.72;;;13.20;99.90;;;;;;7388904;19;20130;-75
2023/05/04 01:10:02;;;;;;;4.85;2.72;;;13.10;99.90;;;;;;7389884;19;20139;-75
2023/05/04 01:12:41;;;;;;;5.32;2.88;;;13.10;99.90;;;;;;7385597;19;20591;-75
2023/05/04 01:15:09;;;;;;;5.47;3.65;;;13.00;99.90;;;;;;7386489;19;20146;-74
2023/05/04 01:17:35;;;;;;;3.85;2.72;;;12.90;99.90;;;;;;7382282;19;20154;-76
2023/05/04 01:20:01;;;;;;;3.97;3.13;;;13.00;99.90;;;;;;7382146;19;20135;-75
2023/05/04 01:22:26;;;;;;;4.03;2.95;;;13.20;99.90;;;;;;7385369;19;20514;-75
2023/05/04 01:24:52;;;;;;;3.35;2.70;;;13.30;99.90;;;;;;7385115;19;20621;-75
2023/05/04 01:27:25;;;;;;;7.25;3.03;;;13.30;99.90;;;;;;7384784;19;20137;-75
2023/05/04 01:30:09;;;;;;;4.13;2.80;;;13.30;99.90;;;;;;7387827;19;20130;-75
2023/05/04 01:32:36;;;;;;;3.60;2.80;;;13.20;99.90;;;;;;7384047;19;20138;-76
2023/05/04 01:35:02;;;;;;;4.27;3.10;;;13.00;99.90;;;;;;7383281;19;20146;-75
2023/05/04 01:37:28;;;;;;;4.28;3.25;;;12.90;99.90;;;;;;7386668;19;20138;-75
2023/05/04 01:39:54;;;;;;;3.25;2.70;;;12.70;99.90;;;;;;7385873;19;20145;-75
2023/05/04 01:42:19;;;;;;;4.60;3.00;;;12.80;99.90;;;;;;7383135;19;20142;-76
2023/05/04 01:44:45;;;;;;;5.47;3.15;;;12.90;99.90;;;;;;7385201;19;20138;-75
2023/05/04 01:47:11;;;;;;;4.78;2.70;;;13.00;99.90;;;;;;7386141;19;20134;-75
2023/05/04 01:49:36;;;;;;;4.13;3.10;;;12.80;99.90;;;;;;7385334;19;20126;-75
2023/05/04 01:52:02;;;;;;;4.85;2.80;;;13.00;99.90;;;;;;7384544;19;20697;-74
2023/05/04 01:54:28;;;;;;;8.82;3.30;;;13.00;99.90;;;;;;7385247;19;20147;-75
2023/05/04 01:56:54;;;;;;;5.30;3.25;;;12.90;99.90;;;;;;7385330;19;20130;-75
2023/05/04 01:59:20;;;;;;;4.32;3.25;;;13.00;99.90;;;;;;7383817;19;20139;-75
2023/05/04 02:01:45;;;;;;;3.65;2.95;;;13.10;99.90;;;;;;7384778;19;20154;-76
2023/05/04 02:04:11;;;;;;;3.80;3.05;;;13.20;99.90;;;;;;7383459;19;20134;-75
2023/05/04 02:06:37;;;;;;;4.00;3.38;;;13.30;99.90;;;;;;7383548;19;20854;-75
2023/05/04 02:09:03;;;;;;;4.03;3.00;;;13.40;99.90;;;;;;7382051;19;20141;-75
2023/05/04 02:11:28;;;;;;;5.07;3.20;;;13.40;99.90;;;;;;7377396;19;20158;-77
2023/05/04 02:13:54;;;;;;;3.95;3.35;;;13.50;99.90;;;;;;7383378;19;20134;-75
2023/05/04 02:16:20;;;;;;;5.43;3.80;;;13.30;99.90;;;;;;7382070;19;20139;-75
2023/05/04 02:18:46;;;;;;;4.88;3.63;;;13.30;99.90;;;;;;7382079;19;20497;-75
2023/05/04 02:21:12;;;;;;;5.00;3.40;;;12.80;99.90;;;;;;7385243;19;20142;-74
2023/05/04 02:23:38;;;;;;;4.10;3.08;;;12.80;99.90;;;;;;7384333;19;20135;-77
2023/05/04 02:26:04;;;;;;;5.20;3.47;;;12.60;99.90;;;;;;7384851;19;20536;-75
2023/05/04 02:28:29;;;;;;;5.28;3.70;;;12.60;99.90;;;;;;7387091;19;20134;-75
2023/05/04 02:30:55;;;;;;;8.68;3.33;;;12.60;99.90;;;;;;7384174;19;20142;-74
2023/05/04 02:33:21;;;;;;;4.68;3.70;;;12.70;99.90;;;;;;7382109;19;20161;-75
2023/05/04 02:35:46;;;;;;;5.53;3.65;;;12.60;99.90;;;;;;7384220;19;20599;-76
2023/05/04 02:38:12;;;;;;;4.75;3.40;;;12.70;99.90;;;;;;7383304;19;20153;-76
2023/05/04 02:40:38;;;;;;;4.03;3.27;;;12.50;99.90;;;;;;7380857;19;20156;-75
2023/05/04 02:43:03;;;;;;;5.68;3.38;;;12.40;99.90;;;;;;7383451;19;20146;-75
2023/05/04 02:45:29;;;;;;;6.18;3.67;;;12.20;99.90;;;;;;7383435;19;20153;-75
2023/05/04 02:47:55;;;;;;;4.72;3.28;;;12.30;99.90;;;;;;7390610;19;20567;-75
2023/05/04 02:50:21;;;;;;;7.43;3.85;;;12.30;99.90;;;;;;7392492;19;20671;-75
2023/05/04 02:52:46;;;;;;;4.73;3.60;;;12.70;99.90;;;;;;7390756;19;20143;-76
2023/05/04 02:55:12;;;;;;;5.13;3.72;;;12.80;99.90;;;;;;7390131;19;20139;-75
2023/05/04 02:57:38;;;;;;;5.93;3.63;;;12.80;99.90;;;;;;7390399;19;20635;-75
2023/05/04 03:00:05;;;;;;;4.30;3.50;;;12.80;99.90;;;;;;7387702;19;20150;-74
2023/05/04 03:02:31;;;;;;;7.95;3.58;;;13.00;99.90;;;;;;7393161;19;20517;-75
2023/05/04 03:04:57;;;;;;;6.00;3.42;;;12.80;99.90;;;;;;7390756;19;20143;-75
2023/05/04 03:07:23;;;;;;;5.80;3.45;;;12.40;99.90;;;;;;7390448;19;20209;-75
2023/05/04 03:09:49;;;;;;;6.47;3.85;;;12.00;99.90;;;;;;7392578;19;20549;-74
2023/05/04 03:12:14;;;;;;;7.10;3.30;;;12.10;99.90;;;;;;7389414;19;20231;-75
2023/05/04 03:14:41;;;;;;;7.40;3.90;;;12.30;99.90;;;;;;7391791;19;20139;-75
2023/05/04 03:17:07;;;;;;;4.60;3.40;;;12.50;99.90;;;;;;7389682;19;20214;-75
2023/05/04 03:19:33;;;;;;;5.63;3.63;;;12.40;99.90;;;;;;7387173;19;20164;-75
2023/05/04 03:21:59;;;;;;;4.87;3.87;;;12.30;99.90;;;;;;7390729;19;20158;-76
2023/05/04 03:24:24;;;;;;;5.03;3.80;;;12.30;99.90;;;;;;7389499;19;20154;-76
2023/05/04 03:26:50;;;;;;;6.38;3.40;;;12.20;99.90;;;;;;7389580;19;20765;-75
2023/05/04 03:29:16;;;;;;;5.93;3.70;;;12.50;99.90;;;;;;7388531;19;20589;-75
2023/05/04 03:31:41;;;;;;;5.75;3.70;;;12.60;99.90;;;;;;7387711;19;20152;-75
2023/05/04 03:34:08;;;;;;;7.45;3.70;;;12.30;99.90;;;;;;7386149;19;20264;-75
2023/05/04 03:36:34;;;;;;;4.50;3.53;;;12.10;99.90;;;;;;7389508;19;20141;-75
2023/05/04 03:39:01;;;;;;;5.97;3.80;;;11.70;99.90;;;;;;7391606;19;20202;-75
2023/05/04 03:41:26;;;;;;;6.30;4.97;;;11.60;99.90;;;;;;7389459;19;20615;-75
2023/05/04 03:43:52;;;;;;;5.00;4.13;;;11.80;99.90;;;;;;7390291;19;20197;-75
2023/05/04 03:46:18;;;;;;;4.65;3.75;;;11.90;99.90;;;;;;7389588;19;20724;-75
2023/05/04 03:48:43;;;;;;;5.95;3.63;;;11.80;99.90;;;;;;7387916;19;20131;-75
2023/05/04 03:51:09;;;;;;;6.60;4.53;;;12.10;99.90;;;;;;7388369;19;20760;-76
2023/05/04 03:53:35;;;;;;;5.53;4.23;;;12.30;99.90;;;;;;7387567;19;20135;-75
2023/05/04 03:56:05;;;;;;;8.93;5.00;;;12.50;99.90;;;;;;7389495;19;20159;-75
2023/05/04 03:58:30;;;;;;;6.13;4.85;;;12.60;99.90;;;;;;7387467;19;20139;-75
2023/05/04 04:00:56;;;;;;;8.33;4.83;;;12.70;99.90;;;;;;7389274;19;20134;-75
2023/05/04 04:03:22;;;;;;;7.20;5.27;;;12.70;99.90;;;;;;7387752;19;20135;-76
2023/05/04 04:05:48;;;;;;;6.60;4.75;;;12.70;99.90;;;;;;7391079;19;20217;-76
2023/05/04 04:08:13;;;;;;;6.70;5.00;;;12.50;99.90;;;;;;7389848;19;20589;-76
2023/05/04 04:10:40;;;;;;;7.40;5.20;;;12.30;99.90;;;;;;7388338;19;20600;-74
2023/05/04 04:13:05;;;;;;;8.27;5.47;;;12.30;99.90;;;;;;7389411;19;20453;-75
2023/05/04 04:15:31;;;;;;;7.53;4.95;;;12.20;99.90;;;;;;7392352;19;20142;-75
2023/05/04 04:18:00;;;;;;;7.47;5.22;;;12.20;99.90;;;;;;7387729;19;20131;-75
2023/05/04 04:20:25;;;;;;;6.18;5.00;;;12.10;99.90;;;;;;7387083;19;20548;-75
2023/05/04 04:22:51;;;;;;;5.80;5.05;;;12.30;99.90;;;;;;7387146;19;20150;-76
2023/05/04 04:25:17;;;;;;;9.02;5.78;;;12.40;99.90;;;;;;7388970;19;20599;-74
2023/05/04 04:27:43;;;;;;;8.40;5.40;;;12.50;99.90;;;;;;7387538;19;20166;-75
2023/05/04 04:30:09;;;;;;;6.93;5.53;;;12.70;99.90;;;;;;7388126;19;20229;-75
2023/05/04 04:32:34;;;;;;;7.93;5.68;;;12.70;99.90;;;;;;7387301;19;20150;-75
2023/05/04 04:35:00;;;;;;;6.20;5.13;;;12.60;99.90;;;;;;7387340;19;20153;-74
2023/05/04 04:37:26;;;;;;;7.20;5.18;;;12.60;99.90;;;;;;7387738;19;20190;-76
2023/05/04 04:39:52;;;;;;;7.43;5.57;;;12.60;99.90;;;;;;7389789;19;20824;-76
2023/05/04 04:42:17;;;;;;;10.00;6.22;;;12.70;99.90;;;;;;7386228;19;20675;-76
2023/05/04 04:44:44;;;;;;;7.57;6.15;;;12.70;99.90;;;;;;7387416;19;20194;-76
2023/05/04 04:47:10;;;;;;;7.47;5.47;;;12.70;99.90;;;;;;7386568;19;20164;-75
2023/05/04 04:49:36;;;;;;;7.85;6.07;;;12.80;99.90;;;;;;7384651;19;20599;-75
2023/05/04 04:52:02;;;;;;;6.72;5.45;;;12.80;99.90;;;;;;7387344;19;20202;-76
2023/05/04 04:54:28;;;;;;;10.97;6.00;;;12.70;99.90;;;;;;7387770;19;20151;-75
2023/05/04 04:56:54;;;;;;;7.60;5.65;;;12.70;99.90;;;;;;7385592;19;20161;-75
2023/05/04 04:59:23;;;;;;;9.30;6.35;;;12.70;99.90;;;;;;7386742;19;20634;-78
2023/05/04 05:01:49;;;;;;;6.25;5.40;;;12.60;99.90;;;;;;7384597;19;20165;-75
2023/05/04 05:04:15;;;;;;;6.97;5.80;;;12.50;99.90;;;;;;7388196;19;20139;-75
2023/05/04 05:06:40;;;;;;;8.18;5.35;;;12.60;99.90;;;;;;7386446;19;20135;-75
2023/05/04 05:09:08;;;;;;;8.70;5.77;;;12.70;99.90;;;;;;7386423;19;20151;-75
2023/05/04 05:11:34;;;;;;;8.52;5.05;;;12.70;99.90;;;;;;7386323;19;20194;-74
2023/05/04 05:14:00;;;;;;;6.93;4.90;;;12.80;99.90;;;;;;7387001;19;20564;-75
2023/05/04 05:16:26;;;;;;;6.90;4.72;;;12.90;99.90;;;;;;7387074;19;20201;-75
2023/05/04 05:18:52;;;;;;;6.83;4.70;;;13.00;99.90;;;;;;7388110;19;20465;-75
2023/05/04 05:21:17;;;;;;;7.93;5.77;;;13.00;99.90;;;;;;7385381;19;20165;-75
2023/05/04 05:23:43;;;;;;;7.90;5.63;;;12.90;99.90;;;;;;7386767;19;20148;-75
2023/05/04 05:26:11;;;;;;;6.77;5.17;;;13.00;99.90;;;;;;7383702;19;20155;-75
2023/05/04 05:28:37;;;;;;;7.20;5.40;;;13.00;99.90;;;;;;7385147;19;20133;-74
2023/05/04 05:31:03;;;;;;;6.78;4.70;;;13.00;99.90;;;;;;7383421;19;20139;-75
2023/05/04 05:33:29;;;;;;;9.50;5.55;;;13.00;99.90;;;;;;7386111;19;20134;-74
2023/05/04 05:35:55;;;;;;;7.88;5.28;;;13.10;99.90;;;;;;7382405;19;20153;-76
2023/05/04 05:38:21;;;;;;;8.17;5.83;;;12.90;99.90;;;;;;7384535;19;20130;-76
2023/05/04 05:40:48;;;;;;;7.50;5.47;;;12.90;99.90;;;;;;7380380;19;20155;-76
2023/05/04 05:43:14;;;;;;;8.30;5.65;;;12.80;99.90;;;;;;7388626;19;20157;-76
2023/05/04 05:45:40;;;;;;;6.47;5.43;;;12.90;99.90;;;;;;7383340;19;20190;-74
2023/05/04 05:48:06;;;;;;;9.60;6.20;;;13.00;99.90;;;;;;7385292;19;20666;-76
2023/05/04 05:50:31;;;;;;;8.27;5.93;;;13.00;99.90;;;;;;7385983;19;20478;-76
2023/05/04 05:52:57;;;;;;;8.50;5.93;;;13.00;99.90;;;;;;7388369;19;20446;-77
2023/05/04 05:55:23;;;;;;;7.17;5.43;;;13.10;99.90;;;;;;7386612;19;20131;-77
2023/05/04 05:57:48;;;;;;;9.10;5.83;;;13.10;99.90;;;;;;7387348;19;20209;-76
2023/05/04 06:00:15;;;;;;;11.37;6.43;;;13.10;99.90;;;;;;7384155;19;20149;-77
2023/05/04 06:02:41;;;;;;;7.22;5.95;;;13.10;99.90;;;;;;7383641;19;20127;-77
2023/05/04 06:05:07;;;;;;;9.40;6.03;;;13.10;99.90;;;;;;7386182;19;20431;-77
2023/05/04 06:07:32;;;;;;;12.23;6.43;;;13.10;99.90;;;;;;7384040;19;20146;-77
2023/05/04 06:09:58;;;;;;;8.37;5.97;;;13.10;99.90;;;;;;7383327;19;20142;-76
2023/05/04 06:12:24;;;;;;;9.30;6.37;;;13.10;99.90;;;;;;7384695;19;20249;-77
2023/05/04 06:14:50;;;;;;;10.45;6.22;;;13.20;99.90;;;;;;7384993;19;20142;-77
2023/05/04 06:17:17;;;;;;;9.73;5.73;;;13.20;99.90;;;;;;7384444;19;20531;-76
2023/05/04 06:19:44;;;;;;;10.67;6.33;;;13.20;99.90;;;;;;7380309;19;20155;-77
2023/05/04 06:22:10;;;;;;;10.03;6.50;;;13.30;99.90;;;;;;7389069;19;20222;-76
2023/05/04 06:24:36;;;;;;;10.20;6.97;;;13.50;99.90;;;;;;7392248;19;20255;-76
2023/05/04 06:27:02;;;;;;;9.80;6.05;;;13.80;99.90;;;;;;7390662;19;20157;-77
2023/05/04 06:29:28;;;;;;;8.55;6.43;;;15.50;99.90;;;;;;7392063;19;20814;-76
2023/05/04 06:31:53;;;;;;;9.40;6.45;;;17.60;99.90;;;;;;7393076;19;20157;-76
2023/05/04 06:34:20;;;;;;;8.85;6.20;;;19.40;99.90;;;;;;7392932;19;20134;-76
2023/05/04 06:36:47;;;;;;;8.30;5.57;;;20.40;99.90;;;;;;7391381;19;20139;-80
2023/05/04 06:39:14;;;;;;;10.05;7.45;;;21.00;99.90;;;;;;7390526;19;20131;-81
2023/05/04 06:41:40;;;;;;;8.40;6.60;;;21.10;99.90;;;;;;7391966;19;20150;-76
2023/05/04 06:44:09;;;;;;;11.05;8.07;;;21.20;99.90;;;;;;7390064;19;20143;-80
2023/05/04 06:46:38;;;;;;;9.82;6.85;;;21.40;99.90;;;;;;7390679;19;20167;-80
2023/05/04 06:49:04;;;;;;;10.52;6.88;;;21.90;99.90;;;;;;7390379;19;20161;-81
2023/05/04 06:51:30;;;;;;;9.00;7.38;;;22.10;99.90;;;;;;7390897;19;20142;-80
2023/05/04 06:53:56;;;;;;;8.68;7.13;;;22.30;99.70;;;;;;7391029;19;20139;-81
2023/05/04 06:56:23;;;;;;;13.07;7.78;;;22.10;99.70;;;;;;7392816;19;20205;-79
2023/05/04 06:58:51;;;;;;;10.02;7.25;;;21.90;99.90;;;;;;7390594;19;20231;-80
2023/05/04 07:01:17;;;;;;;9.25;6.97;;;22.30;99.30;;;;;;7390483;19;20142;-79
2023/05/04 07:03:43;;;;;;;10.38;6.75;;;22.00;99.40;;;;;;7390403;19;20157;-80
2023/05/04 07:06:09;;;;;;;9.18;6.78;;;21.40;99.90;;;;;;7392511;19;20148;-79
2023/05/04 07:08:34;;;;;;;12.68;7.22;;;21.10;99.90;;;;;;7391647;19;20143;-80
2023/05/04 07:11:00;;;;;;;8.88;7.05;;;20.80;99.90;;;;;;7391252;19;20180;-80
2023/05/04 07:13:26;;;;;;;11.98;7.25;;;20.60;99.90;;;;;;7389280;19;20138;-81
2023/05/04 07:15:52;;;;;;;9.45;7.28;;;20.50;99.90;;;;;;7391405;19;20508;-80
2023/05/04 07:18:18;;;;;;;11.50;7.57;;;20.20;99.90;;;;;;7389934;19;20607;-79
2023/05/04 07:20:44;;;;;;;10.52;7.57;;;20.20;99.90;;;;;;7389863;19;20143;-78
2023/05/04 07:23:10;;;;;;;11.65;7.70;;;20.10;99.90;;;;;;7390804;19;20494;-81
2023/05/04 07:25:36;;;;;;;9.65;7.45;;;19.90;99.90;;;;;;7392772;19;20159;-80
2023/05/04 07:28:01;;;;;;;10.52;7.60;;;20.00;99.90;;;;;;7392680;19;20603;-81
2023/05/04 07:30:27;;;;;;;8.55;7.10;;;19.90;99.90;;;;;;7393689;19;20146;-80
2023/05/04 07:32:53;;;;;;;13.07;7.13;;;19.90;99.90;;;;;;7391358;19;20167;-82
2023/05/04 07:35:19;;;;;;;8.85;7.38;;;20.10;99.90;;;;;;7395730;19;20151;-81
2023/05/04 07:37:45;;;;;;;10.25;7.40;;;20.20;99.90;;;;;;7396903;19;20158;-81
2023/05/04 07:40:13;;;;;;;13.85;7.05;;;20.40;99.90;;;;;;7390779;19;20166;-79
2023/05/04 07:42:39;;;;;;;8.52;6.28;;;20.60;99.90;;;;;;7390979;19;20669;-80
2023/05/04 07:45:07;;;;;;;9.20;7.25;;;20.90;99.90;;;;;;7394069;19;20146;-80
2023/05/04 07:47:33;;;;;;;8.30;6.72;;;20.90;99.90;;;;;;7392442;19;20591;-79
2023/05/04 07:49:59;;;;;;;9.32;6.80;;;20.70;99.90;;;;;;7391158;19;20247;-80
2023/05/04 07:52:25;;;;;;;9.57;6.63;;;20.70;99.90;;;;;;7390642;19;20154;-78
2023/05/04 07:54:52;;;;;;;12.30;6.13;;;20.70;99.90;;;;;;7390191;19;20571;-81
2023/05/04 07:57:18;;;;;;;10.65;6.88;;;20.60;99.90;;;;;;7391312;19;20146;-81
2023/05/04 07:59:44;;;;;;;8.35;6.22;;;20.70;99.90;;;;;;7386871;19;20174;-80
2023/05/04 08:02:11;;;;;;;11.77;6.35;;;20.40;99.90;;;;;;7389546;19;20214;-81
2023/05/04 08:04:37;;;;;;;8.88;6.40;;;20.30;99.90;;;;;;7391916;19;20487;-81
2023/05/04 08:07:03;;;;;;;8.20;5.72;;;20.50;99.90;;;;;;7390314;19;20136;-80
2023/05/04 08:09:29;;;;;;;9.98;5.63;;;20.60;99.90;;;;;;7394699;19;20142;-82
2023/05/04 08:11:55;;;;;;;7.63;5.93;;;20.80;99.90;;;;;;7389671;19;20135;-83
2023/05/04 08:14:20;;;;;;;7.43;6.13;;;20.90;99.90;;;;;;7391326;19;20644;-81
2023/05/04 08:16:46;;;;;;;7.05;5.40;;;20.80;99.90;;;;;;7388970;19;20143;-82
2023/05/04 08:19:12;;;;;;;6.65;5.53;;;20.90;99.90;;;;;;7389391;19;20150;-82
2023/05/04 08:21:39;;;;;;;7.50;5.38;;;21.10;99.90;;;;;;7390548;19;20135;-82
2023/05/04 08:24:05;;;;;;;9.60;5.57;;;21.30;99.90;;;;;;7389836;19;20138;-82
2023/05/04 08:26:31;;;;;;;8.40;5.50;;;21.40;99.90;;;;;;7388717;19;20142;-83
2023/05/04 08:29:06;;;;;;;7.47;5.00;;;21.20;99.90;;;;;;7388997;19;20140;-83
2023/05/04 08:31:32;;;;;;;6.22;4.93;;;20.80;99.90;;;;;;7389517;19;20167;-81
2023/05/04 08:33:58;;;;;;;6.15;4.68;;;20.60;99.90;;;;;;7389196;19;20145;-79
2023/05/04 08:36:25;;;;;;;5.45;4.68;;;20.60;99.90;;;;;;7392608;19;20250;-83
2023/05/04 08:38:52;;;;;;;5.78;4.78;;;20.80;99.90;;;;;;7387766;19;20230;-80
2023/05/04 08:41:18;;;;;;;8.95;4.88;;;20.70;99.90;;;;;;7387459;19;20155;-80
2023/05/04 08:43:45;;;;;;;5.28;4.43;;;20.60;99.90;;;;;;7388153;19;20131;-79
2023/05/04 08:46:12;;;;;;;8.23;5.15;;;20.50;99.90;;;;;;7389725;19;20135;-80
2023/05/04 08:48:38;;;;;;;7.82;5.45;;;20.50;99.90;;;;;;7381010;19;20137;-78
2023/05/04 08:51:05;;;;;;;7.93;4.32;;;20.40;99.90;;;;;;7373364;19;20142;-77
2023/05/04 08:53:35;;;;;;;4.70;3.58;;;20.70;99.90;;;;;;7381790;19;20158;-76
2023/05/04 08:56:06;;;;;;;3.78;3.25;;;20.90;99.20;;;;;;7383228;19;20238;-77
2023/05/04 08:58:36;;;;;;;3.38;3.08;;;21.10;99.10;;;;;;7387159;19;20171;-76
2023/05/04 09:01:05;;;;;;;4.93;3.78;;;21.40;98.80;;;;;;7383541;19;20134;-77
2023/05/04 09:03:31;;;;;;;3.83;3.10;;;21.40;97.50;;;;;;7387073;19;20146;-77
2023/05/04 09:05:58;;;;;;;5.05;2.90;;;21.40;97.10;;;;;;7388834;19;20139;-76
2023/05/04 09:08:24;;;;;;;5.05;4.13;;;21.30;96.90;;;;;;7389324;19;20151;-77
2023/05/04 09:10:50;;;;;;;3.40;2.70;;;21.20;96.90;;;;;;7389173;19;20154;-77
2023/05/04 09:13:16;;;;;;;3.60;3.30;;;21.30;96.50;;;;;;7387281;19;20138;-76
2023/05/04 09:15:58;;;;;;;3.30;3.00;;;21.30;96.40;;;;;;7387188;19;20131;-77
2023/05/04 09:18:38;;;;;;;3.10;2.80;;;21.30;97.00;;;;;;7388485;19;20137;-77
2023/05/04 09:21:04;;;;;;;6.35;3.47;;;21.50;96.60;;;;;;7386695;19;20622;-76
2023/05/04 09:23:30;;;;;;;4.38;3.65;;;21.70;96.20;;;;;;7389431;19;20131;-77
2023/05/04 09:25:56;;;;;;;3.55;2.72;;;21.80;95.50;;;;;;7387110;19;20138;-78
2023/05/04 09:28:37;;;;;;;3.58;2.88;;;21.60;95.80;;;;;;7388020;19;20135;-79
2023/05/04 09:31:04;;;;;;;5.00;3.38;;;21.50;95.30;;;;;;7390586;19;20263;-76
2023/05/04 09:33:30;;;;;;;4.68;2.63;;;21.00;95.10;;;;;;7388907;19;20127;-76
2023/05/04 09:35:59;;;;;;;3.00;2.70;;;20.90;96.40;;;;;;7387086;19;20135;-76
2023/05/04 09:38:28;;;;;;;3.75;3.20;;;21.10;96.20;;;;;;7387200;19;20138;-77
2023/05/04 09:40:54;;;;;;;3.65;3.22;;;21.20;95.70;;;;;;7384854;19;20135;-78
2023/05/04 09:43:21;;;;;;;3.55;3.22;;;21.30;95.40;;;;;;7386218;19;20254;-78
2023/05/04 09:45:47;;;;;;;5.15;3.30;;;21.50;95.50;;;;;;7387093;19;20183;-79
2023/05/04 09:48:25;;;;;;;3.17;2.50;;;21.40;95.10;;;;;;7388053;19;20147;-78
2023/05/04 09:50:52;;;;;;;3.40;2.65;;;21.10;95.70;;;;;;7385441;19;20131;-79
2023/05/04 09:53:23;;;;;;;3.30;2.78;;;21.10;95.40;;;;;;7387370;19;20154;-80
2023/05/04 09:56:10;;;;;;;3.85;2.55;;;21.20;95.20;;;;;;7380824;19;20214;-79
2023/05/04 09:58:36;;;;;;;3.08;2.67;;;21.10;94.90;;;;;;7385372;19;20537;-81
2023/05/04 10:01:03;;;;;;;2.50;2.30;;;21.00;94.70;;;;;;7381343;19;20847;-80
2023/05/04 10:03:30;;;;;;;4.97;2.90;;;21.10;95.10;;;;;;7387877;19;20172;-82
2023/05/04 10:05:58;;;;;;;4.82;2.78;;;21.20;94.40;;;;;;7392773;19;20149;-81
2023/05/04 10:08:25;;;;;;;4.53;2.45;;;21.20;94.90;;;;;;7389729;19;20155;-80
2023/05/04 10:10:52;;;;;;;2.85;2.60;;;21.20;94.00;;;;;;7385322;19;20170;-79
2023/05/04 10:13:17;;;;;;;3.17;2.78;;;21.10;94.50;;;;;;7387376;19;20599;-80
2023/05/04 10:16:16;;;;;;;3.55;3.13;;;21.20;94.70;;;;;;7384778;19;20126;-78
2023/05/04 10:18:56;;;;;;;3.78;2.55;;;21.00;94.00;;;;;;7385834;19;20150;-78
2023/05/04 10:21:35;;;;;;;2.35;2.10;;;20.90;94.70;;;;;;7389497;19;20574;-78
2023/05/04 10:24:21;;;;;;;3.42;2.50;;;21.00;95.40;;;;;;7386206;19;20130;-79
2023/05/04 10:27:16;;;;;;;3.30;2.60;;;21.30;94.10;;;;;;7384379;19;20134;-80
2023/05/04 10:29:46;;;;;;;3.00;2.40;;;21.30;93.70;;;;;;7386410;19;20134;-80
2023/05/04 10:32:22;;;;;;;2.83;2.25;;;21.40;94.30;;;;;;7387440;19;20142;-82
2023/05/04 10:34:48;;;;;;;2.80;2.33;;;21.60;93.20;;;;;;7386207;19;20161;-82
2023/05/04 10:37:18;;;;;;;4.45;2.40;;;21.70;93.30;;;;;;7384001;19;20626;-78
2023/05/04 10:39:54;;;;;;;2.78;2.42;;;21.80;92.70;;;;;;7382508;19;20513;-79
2023/05/04 10:42:20;;;;;;;2.95;2.33;;;21.80;92.90;;;;;;7382690;19;20198;-80
2023/05/04 10:44:55;;;;;;;2.58;2.38;;;21.80;92.20;;;;;;7385557;19;20150;-78
2023/05/04 10:47:34;;;;;;;3.08;2.40;;;21.80;92.50;;;;;;7386698;19;20138;-83
2023/05/04 10:50:13;;;;;;;2.75;2.45;;;22.20;92.40;;;;;;7386369;19;20146;-79
2023/05/04 10:52:54;;;;;;;3.08;2.78;;;22.30;91.60;;;;;;7390709;19;20469;-81
2023/05/04 10:55:22;;;;;;;5.88;3.00;;;22.20;91.30;;;;;;7387546;19;20142;-79
2023/05/04 10:57:55;;;;;;;2.58;2.25;;;22.20;91.60;;;;;;7387511;19;20150;-79
2023/05/04 11:00:23;;;;;;;3.88;2.15;;;22.30;91.10;;;;;;7382926;19;20190;-79
2023/05/04 11:02:49;;;;;;;3.28;2.85;;;22.20;91.30;;;;;;7384591;19;20221;-80
2023/05/04 11:05:18;;;;;;;4.25;3.80;;;22.40;91.00;;;;;;7386351;19;20941;-82
2023/05/04 11:07:45;;;;;;;9.55;8.25;;;22.50;90.00;;;;;;7384020;19;20154;-81
2023/05/04 11:10:22;;;;;;;3.40;2.95;;;22.50;89.50;;;;;;7393311;19;20494;-82
2023/05/04 11:12:48;;;;;;;3.80;2.75;;;22.60;90.10;;;;;;7393400;19;20135;-80
2023/05/04 11:15:14;;;;;;;4.18;2.55;;;22.80;90.50;;;;;;7393964;19;20167;-80
2023/05/04 11:17:49;;;;;;;2.70;2.35;;;22.80;89.30;;;;;;7391262;19;20145;-83
2023/05/04 11:20:23;;;;;;;2.85;2.30;;;22.70;87.80;;;;;;7393028;19;20217;-83
2023/05/04 11:22:49;;;;;;;2.97;2.72;;;22.70;87.10;;;;;;7391554;19;20174;-81
2023/05/04 11:25:25;;;;;;;3.80;2.70;;;22.60;87.00;;;;;;7392497;19;20170;-81
2023/05/04 11:27:50;;;;;;;2.05;1.88;;;22.40;87.70;;;;;;7392451;19;20142;-81
2023/05/04 11:30:16;;;;;;;3.45;3.15;;;22.40;90.40;;;;;;7388381;19;20137;-79
2023/05/04 11:32:45;;;;;;;3.65;2.30;;;22.70;88.90;;;;;;7391465;19;20146;-78
2023/05/04 11:35:16;;;;;;;3.67;2.40;;;22.70;88.10;;;;;;7391180;19;20135;-79
2023/05/04 11:37:43;;;;;;;3.00;2.30;;;22.90;87.10;;;;;;7388553;19;20156;-79
2023/05/04 11:40:16;;;;;;;2.70;2.38;;;22.70;88.30;;;;;;7387916;19;20566;-78
2023/05/04 11:42:42;;;;;;;3.22;2.92;;;22.70;86.80;;;;;;7388254;19;20154;-81
2023/05/04 11:45:10;;;;;;;3.05;1.95;;;22.70;87.60;;;;;;7391538;19;20648;-82
2023/05/04 11:47:37;;;;;;;5.15;2.35;;;22.80;88.20;;;;;;7393739;19;20160;-83
2023/05/04 11:50:05;;;;;;;2.50;2.15;;;23.00;86.20;;;;;;7391859;19;20231;-85
2023/05/04 11:52:34;;;;;;;3.00;2.58;;;23.10;85.70;;;;;;7390508;19;20603;-81
2023/05/04 11:55:00;;;;;;;2.92;2.25;;;23.10;84.60;;;;;;7391310;19;20154;-83
2023/05/04 11:57:26;;;;;;;2.60;2.30;;;23.00;85.20;;;;;;7393294;19;20478;-83
2023/05/04 11:59:51;;;;;;;4.20;2.72;;;23.00;84.50;;;;;;7389393;19;20155;-82
2023/05/04 12:02:18;;;;;;;4.10;2.08;;;23.10;84.00;;;;;;7391195;19;20622;-81
2023/05/04 12:04:44;;;;;;;3.22;2.20;;;23.20;85.20;;;;;;7392001;19;20170;-82
2023/05/04 12:07:09;;;;;;;4.28;2.58;;;23.10;85.10;;;;;;7398208;19;20134;-80
2023/05/04 12:09:45;;;;;;;6.82;2.55;;;23.20;84.10;;;;;;7393374;19;20479;-80
2023/05/04 12:12:12;;;;;;;3.83;2.63;;;23.20;82.00;;;;;;7390882;19;20162;-80
2023/05/04 12:14:47;;;;;;;8.82;5.43;;;22.90;81.80;;;;;;7388561;19;20146;-82
2023/05/04 12:17:14;;;;;;;2.83;2.28;;;22.90;83.90;;;;;;7392019;19;20168;-82
2023/05/04 12:19:48;;;;;;;2.78;2.35;;;22.90;84.20;;;;;;7389473;19;20139;-80
2023/05/04 12:22:13;;;;;;;2.53;2.33;;;23.10;83.70;;;;;;7387522;19;20146;-79
2023/05/04 12:24:39;;;;;;;3.08;2.80;;;23.20;84.10;;;;;;7387906;19;20130;-80
2023/05/04 12:27:12;;;;;;;2.85;2.58;;;23.30;83.20;;;;;;7383109;19;20131;-80
2023/05/04 12:29:38;;;;;;;4.20;2.72;;;23.20;85.10;;;;;;7389349;19;20147;-79
2023/05/04 12:32:04;;;;;;;2.65;2.28;;;23.20;84.60;;;;;;7388606;19;20130;-80
2023/05/04 12:34:30;;;;;;;3.80;3.00;;;23.40;83.90;;;;;;7385902;19;20494;-79
2023/05/04 12:36:56;;;;;;;2.95;2.40;;;23.50;81.70;;;;;;7390675;19;20142;-78
2023/05/04 12:39:22;;;;;;;2.95;2.40;;;23.40;83.60;;;;;;7386024;19;20126;-79
2023/05/04 12:41:48;;;;;;;2.78;2.42;;;23.20;85.70;;;;;;7386895;19;20146;-79
2023/05/04 12:44:15;;;;;;;3.67;2.80;;;23.00;84.90;;;;;;7387274;19;20210;-79
2023/05/04 12:46:42;;;;;;;3.00;2.40;;;23.20;84.40;;;;;;7386916;19;20126;-78